Time;durP1;ratioP1;P1;durP2;ratioP2;P2;SDS_P1;SDS_P2;PMS_P1;PMS_P2;Temp;Humidity;BMP_temperature;BMP_pressure;BME280_temperature;BME280_humidity;BME280_pressure;Samples;Min_cycle;Max_cycle;Signal;HPM_P1;HPM_P2
2022/08/09 00:01:36;;;;;;;5.10;3.00;;;27.30;98.80;;;;;;5034081;28;20115;-71
2022/08/09 00:04:03;;;;;;;7.00;3.15;;;27.40;99.00;;;;;;5051561;28;20041;-70
2022/08/09 00:06:29;;;;;;;4.40;2.90;;;27.30;99.40;;;;;;5051506;28;20164;-72
2022/08/09 00:08:55;;;;;;;5.30;2.88;;;27.30;99.50;;;;;;5050597;28;20449;-72
2022/08/09 00:11:22;;;;;;;5.28;3.05;;;27.20;99.50;;;;;;5050174;28;20025;-71
2022/08/09 00:13:49;;;;;;;7.88;3.20;;;27.20;99.60;;;;;;5051293;28;20466;-72
2022/08/09 00:16:15;;;;;;;4.75;2.92;;;27.20;99.90;;;;;;5051548;28;20451;-72
2022/08/09 00:18:41;;;;;;;;;;;27.20;99.90;;;;;;5050250;28;20099;-71
2022/08/09 00:21:07;;;;;;;;;;;27.20;99.90;;;;;;5051837;28;20357;-72
2022/08/09 00:23:34;;;;;;;8.82;2.90;;;27.20;99.90;;;;;;5050185;28;20027;-72
2022/08/09 00:26:00;;;;;;;4.57;2.88;;;27.20;99.90;;;;;;5049323;28;20129;-72
2022/08/09 00:28:26;;;;;;;10.00;2.80;;;27.20;99.90;;;;;;5051383;28;20033;-71
2022/08/09 00:30:52;;;;;;;4.88;3.08;;;27.20;99.90;;;;;;5051313;28;20429;-71
2022/08/09 00:33:18;;;;;;;6.45;2.90;;;27.30;99.90;;;;;;5051087;28;20017;-72
2022/08/09 00:35:45;;;;;;;7.40;2.95;;;27.30;99.90;;;;;;5050927;28;20055;-72
2022/08/09 00:38:12;;;;;;;6.18;3.05;;;27.30;99.90;;;;;;5050974;28;20075;-71
2022/08/09 00:40:41;;;;;;;7.13;3.08;;;27.30;99.90;;;;;;5051016;28;20135;-71
2022/08/09 00:43:07;;;;;;;5.13;2.78;;;27.30;99.90;;;;;;5050766;28;20025;-71
2022/08/09 00:45:34;;;;;;;5.50;2.90;;;27.30;99.90;;;;;;5050878;28;20033;-71
2022/08/09 00:48:01;;;;;;;5.22;3.00;;;27.30;99.90;;;;;;5050741;28;20462;-72
2022/08/09 00:50:28;;;;;;;6.70;3.00;;;27.30;99.90;;;;;;5050857;28;20445;-72
2022/08/09 00:52:57;;;;;;;6.25;3.10;;;27.20;99.90;;;;;;5050572;28;20027;-71
2022/08/09 00:55:23;;;;;;;5.68;3.25;;;27.30;99.90;;;;;;5050697;28;20039;-71
2022/08/09 00:57:50;;;;;;;7.68;3.10;;;27.20;99.90;;;;;;5050387;28;20025;-72
2022/08/09 01:00:16;;;;;;;4.35;2.88;;;27.20;99.90;;;;;;5050393;28;20033;-72
2022/08/09 01:02:46;;;;;;;;;;;27.30;99.90;;;;;;5050860;28;20032;-71
2022/08/09 01:05:30;;;;;;;4.82;2.80;;;27.20;99.90;;;;;;5050228;28;20284;-72
2022/08/09 01:08:08;;;;;;;7.32;3.20;;;27.20;99.90;;;;;;5050647;28;20025;-71
2022/08/09 01:10:55;;;;;;;4.55;2.88;;;27.20;99.90;;;;;;5050410;28;20470;-71
2022/08/09 01:13:47;;;;;;;5.68;3.13;;;27.20;99.90;;;;;;5050497;28;20021;-71
2022/08/09 01:16:16;;;;;;;5.05;3.05;;;27.10;99.90;;;;;;5048705;28;20028;-72
2022/08/09 01:18:45;;;;;;;5.13;2.83;;;27.10;99.90;;;;;;5050104;28;20025;-71
2022/08/09 01:21:33;;;;;;;6.47;2.90;;;27.10;99.90;;;;;;5049856;28;20025;-71
2022/08/09 01:24:43;;;;;;;5.88;3.13;;;27.10;99.90;;;;;;5048815;28;20103;-71
2022/08/09 01:27:11;;;;;;;3.90;2.80;;;27.10;99.90;;;;;;5050068;28;20037;-71
2022/08/09 01:29:46;;;;;;;5.75;3.10;;;27.10;99.90;;;;;;5050216;28;20025;-71
2022/08/09 01:32:16;;;;;;;5.10;2.92;;;27.00;99.90;;;;;;5049983;28;20053;-72
2022/08/09 01:34:43;;;;;;;6.55;3.13;;;26.90;99.90;;;;;;5049661;28;20473;-71
2022/08/09 01:37:13;;;;;;;5.47;3.15;;;27.00;99.90;;;;;;5050195;28;20029;-71
2022/08/09 01:39:43;;;;;;;3.78;2.60;;;26.90;99.90;;;;;;5049627;28;20094;-71
2022/08/09 01:42:09;;;;;;;5.80;3.28;;;26.90;99.90;;;;;;5049744;28;20433;-71
2022/08/09 01:44:37;;;;;;;3.95;3.03;;;26.80;99.90;;;;;;5050013;28;20059;-72
2022/08/09 01:47:06;;;;;;;6.40;3.28;;;26.80;99.90;;;;;;5050075;28;20028;-72
2022/08/09 01:49:35;;;;;;;4.72;2.88;;;26.80;99.90;;;;;;5049862;28;20094;-71
2022/08/09 01:52:06;;;;;;;7.07;3.20;;;26.80;99.90;;;;;;5049667;28;20032;-71
2022/08/09 01:54:39;;;;;;;3.95;2.80;;;26.80;99.90;;;;;;5048221;28;20025;-72
2022/08/09 01:57:19;;;;;;;5.53;2.88;;;26.80;99.90;;;;;;5047853;28;20123;-71
2022/08/09 01:59:49;;;;;;;5.55;3.03;;;26.80;99.90;;;;;;5049487;28;20025;-72
2022/08/09 02:02:18;;;;;;;7.47;3.20;;;26.70;99.90;;;;;;5049423;28;20187;-71
2022/08/09 02:04:45;;;;;;;5.35;3.15;;;26.80;99.90;;;;;;5049363;28;20050;-72
2022/08/09 02:07:16;;;;;;;3.80;2.75;;;26.80;99.90;;;;;;5049725;28;20036;-74
2022/08/09 02:09:49;;;;;;;5.45;2.65;;;26.70;99.90;;;;;;5049212;28;20028;-72
2022/08/09 02:12:17;;;;;;;6.25;3.00;;;26.70;99.90;;;;;;5047877;28;20076;-72
2022/08/09 02:14:48;;;;;;;8.30;3.00;;;26.60;99.90;;;;;;5049510;28;20025;-72
2022/08/09 02:17:15;;;;;;;5.82;3.10;;;26.70;99.90;;;;;;5049826;28;20108;-72
2022/08/09 02:19:42;;;;;;;5.00;2.70;;;26.60;99.90;;;;;;5049782;28;20052;-72
2022/08/09 02:22:35;;;;;;;5.40;3.10;;;26.60;99.90;;;;;;5049509;28;20029;-72
2022/08/09 02:25:07;;;;;;;7.93;3.13;;;26.60;99.90;;;;;;5046532;28;20060;-72
2022/08/09 02:27:35;;;;;;;7.85;3.17;;;26.50;99.90;;;;;;5048996;28;20064;-72
2022/08/09 02:30:03;;;;;;;5.28;3.00;;;26.50;99.90;;;;;;5048623;28;20025;-72
2022/08/09 02:32:31;;;;;;;5.05;3.10;;;26.60;99.90;;;;;;5048902;28;20029;-72
2022/08/09 02:35:04;;;;;;;5.85;3.00;;;26.50;99.90;;;;;;5049026;28;20021;-72
2022/08/09 02:37:36;;;;;;;7.95;3.40;;;26.50;99.90;;;;;;5049158;28;20017;-72
2022/08/09 02:40:07;;;;;;;8.50;3.47;;;26.40;99.90;;;;;;5049424;28;20024;-72
2022/08/09 02:42:37;;;;;;;8.32;3.30;;;26.50;99.90;;;;;;5049364;28;20037;-72
2022/08/09 02:45:31;;;;;;;7.50;3.10;;;26.50;99.90;;;;;;5049526;28;20048;-72
2022/08/09 02:48:04;;;;;;;5.32;3.17;;;26.40;99.90;;;;;;5031254;28;20255;-72
2022/08/09 02:50:40;;;;;;;7.55;3.00;;;26.40;99.90;;;;;;5030743;28;20497;-72
2022/08/09 02:53:18;;;;;;;5.55;3.22;;;26.40;99.90;;;;;;5030965;28;20049;-73
2022/08/09 02:55:46;;;;;;;4.95;2.95;;;26.30;99.90;;;;;;5030810;28;20022;-73
2022/08/09 02:58:15;;;;;;;6.43;3.47;;;26.40;99.90;;;;;;5030530;28;20042;-72
2022/08/09 03:00:43;;;;;;;5.22;3.13;;;26.30;99.90;;;;;;5030579;28;20030;-72
2022/08/09 03:03:11;;;;;;;5.95;3.50;;;26.30;99.90;;;;;;5014210;28;20049;-72
2022/08/09 03:05:39;;;;;;;5.85;3.30;;;26.30;99.90;;;;;;5030510;28;20061;-73
2022/08/09 03:08:07;;;;;;;4.65;3.30;;;26.30;99.90;;;;;;5031054;28;20168;-73
2022/08/09 03:10:35;;;;;;;4.63;3.10;;;26.30;99.90;;;;;;5030985;28;20064;-72
2022/08/09 03:13:02;;;;;;;5.05;3.22;;;26.30;99.90;;;;;;5030713;28;20034;-72
2022/08/09 03:15:29;;;;;;;4.38;3.30;;;26.20;99.90;;;;;;5030942;28;20116;-72
2022/08/09 03:17:55;;;;;;;;;;;26.20;99.90;;;;;;5031680;28;20045;-72
2022/08/09 03:20:22;;;;;;;5.72;3.40;;;26.10;99.90;;;;;;5031451;28;19905;-72
2022/08/09 03:22:49;;;;;;;7.85;3.20;;;26.10;99.90;;;;;;5031731;28;20163;-72
2022/08/09 03:25:15;;;;;;;7.88;3.42;;;26.10;99.90;;;;;;5048214;28;20118;-72
2022/08/09 03:27:43;;;;;;;5.82;3.30;;;26.10;99.90;;;;;;5054757;28;20108;-72
2022/08/09 03:30:11;;;;;;;5.70;3.67;;;26.00;99.90;;;;;;5054745;28;20227;-71
2022/08/09 03:32:39;;;;;;;5.70;3.40;;;26.00;99.90;;;;;;5054681;28;20032;-72
2022/08/09 03:35:05;;;;;;;6.10;3.50;;;25.90;99.90;;;;;;5053985;28;20477;-73
2022/08/09 03:37:31;;;;;;;6.93;3.45;;;26.00;99.90;;;;;;5054402;28;20029;-72
2022/08/09 03:39:57;;;;;;;4.45;3.40;;;26.00;99.90;;;;;;5054107;28;20060;-73
2022/08/09 03:42:23;;;;;;;10.80;3.65;;;26.00;99.90;;;;;;5053626;28;20496;-72
2022/08/09 03:44:49;;;;;;;5.82;3.30;;;25.90;99.90;;;;;;5053759;28;20085;-71
2022/08/09 03:47:15;;;;;;;6.07;3.13;;;25.90;99.90;;;;;;5054087;28;20102;-73
2022/08/09 03:49:43;;;;;;;5.85;3.53;;;25.90;99.90;;;;;;5053883;28;20025;-72
2022/08/09 03:52:10;;;;;;;4.68;3.65;;;25.90;99.90;;;;;;5053364;28;20025;-72
2022/08/09 03:54:38;;;;;;;5.30;3.30;;;25.90;99.90;;;;;;5052813;28;20021;-73
2022/08/09 03:57:08;;;;;;;4.65;3.25;;;26.00;99.90;;;;;;5052679;28;20029;-71
2022/08/09 03:59:34;;;;;;;6.30;3.63;;;26.00;99.90;;;;;;5052776;28;20033;-72
2022/08/09 04:02:00;;;;;;;;;;;26.00;99.90;;;;;;5052776;28;20388;-71
2022/08/09 04:04:27;;;;;;;9.05;3.50;;;25.90;99.90;;;;;;5051221;28;19913;-72
2022/08/09 04:06:53;;;;;;;7.28;3.50;;;25.90;99.90;;;;;;5053145;28;20059;-72
2022/08/09 04:09:20;;;;;;;7.13;3.42;;;25.90;99.90;;;;;;5052936;28;20132;-73
2022/08/09 04:12:10;;;;;;;4.63;3.72;;;26.00;99.90;;;;;;5052764;28;20032;-72
2022/08/09 04:14:39;;;;;;;8.40;3.58;;;26.00;99.90;;;;;;5053258;28;20017;-72
2022/08/09 04:17:06;;;;;;;8.23;3.83;;;25.90;99.90;;;;;;5053650;28;20086;-72
2022/08/09 04:19:33;;;;;;;8.23;3.42;;;25.90;99.90;;;;;;5053593;28;20058;-71
2022/08/09 04:21:59;;;;;;;7.47;3.63;;;25.90;99.90;;;;;;5053343;28;20029;-72
2022/08/09 04:24:26;;;;;;;7.75;3.53;;;25.90;99.90;;;;;;5053653;28;20473;-72
2022/08/09 04:26:53;;;;;;;9.23;3.90;;;25.90;99.90;;;;;;5053476;28;20430;-72
2022/08/09 04:29:19;;;;;;;6.10;3.90;;;25.90;99.90;;;;;;5035312;28;20053;-72
2022/08/09 04:31:46;;;;;;;5.50;3.85;;;25.80;99.90;;;;;;5053273;28;20081;-72
2022/08/09 04:34:12;;;;;;;7.95;4.10;;;25.90;99.90;;;;;;5053019;28;20029;-73
2022/08/09 04:36:38;;;;;;;5.57;3.60;;;25.90;99.90;;;;;;5053599;28;20389;-72
2022/08/09 04:39:08;;;;;;;7.95;3.60;;;25.80;99.90;;;;;;5053518;28;20497;-72
2022/08/09 04:41:35;;;;;;;8.88;4.10;;;25.80;99.90;;;;;;5053763;28;20056;-72
2022/08/09 04:44:02;;;;;;;;;;;25.70;99.90;;;;;;5052417;28;20109;-73
2022/08/09 04:46:28;;;;;;;5.93;4.10;;;25.70;99.90;;;;;;5053365;28;20495;-72
2022/08/09 04:48:54;;;;;;;7.88;3.85;;;25.80;99.90;;;;;;5053319;28;20056;-72
2022/08/09 04:51:20;;;;;;;8.95;4.00;;;25.80;99.90;;;;;;5053289;28;20060;-72
2022/08/09 04:53:46;;;;;;;6.43;3.67;;;25.90;99.90;;;;;;5053034;28;20025;-72
2022/08/09 04:56:12;;;;;;;7.07;4.07;;;26.00;99.90;;;;;;5053285;28;20087;-72
2022/08/09 04:58:38;;;;;;;11.65;4.05;;;26.10;99.90;;;;;;5053227;28;20029;-72
2022/08/09 05:01:04;;;;;;;7.95;4.00;;;26.10;99.90;;;;;;5053125;28;20104;-72
2022/08/09 05:03:30;;;;;;;7.55;3.72;;;26.20;99.90;;;;;;5053013;28;20115;-72
2022/08/09 05:05:57;;;;;;;9.82;4.43;;;26.20;99.90;;;;;;5053199;28;20025;-72
2022/08/09 05:08:23;;;;;;;10.00;4.18;;;26.20;99.90;;;;;;5052628;28;20100;-72
2022/08/09 05:10:49;;;;;;;6.90;3.70;;;26.20;99.90;;;;;;5053467;28;20214;-72
2022/08/09 05:13:15;;;;;;;9.02;3.90;;;26.30;99.90;;;;;;5052820;28;20103;-72
2022/08/09 05:15:41;;;;;;;7.10;4.07;;;26.40;99.90;;;;;;5052816;28;20472;-72
2022/08/09 05:18:07;;;;;;;10.68;3.75;;;26.40;99.90;;;;;;5053136;28;20111;-72
2022/08/09 05:20:34;;;;;;;8.15;3.78;;;26.70;99.90;;;;;;5053323;28;20029;-73
2022/08/09 05:23:00;;;;;;;6.28;3.65;;;27.60;99.90;;;;;;5052804;28;20481;-73
2022/08/09 05:25:26;;;;;;;7.15;3.47;;;28.60;99.90;;;;;;5052608;28;20140;-72
2022/08/09 05:27:52;;;;;;;6.78;2.95;;;29.60;99.90;;;;;;5052927;28;20074;-72
2022/08/09 05:30:18;;;;;;;6.43;3.38;;;30.60;99.90;;;;;;5053402;28;20032;-73
2022/08/09 05:32:45;;;;;;;3.55;2.70;;;31.30;99.90;;;;;;5053111;28;20013;-73
2022/08/09 05:35:11;;;;;;;13.57;3.53;;;31.90;99.90;;;;;;5052823;28;20108;-73
2022/08/09 05:37:37;;;;;;;;;;;32.60;99.90;;;;;;5053443;28;20021;-73
2022/08/09 05:40:05;;;;;;;8.27;2.80;;;32.80;99.90;;;;;;5052905;28;19905;-73
2022/08/09 05:42:31;;;;;;;11.68;2.97;;;33.40;99.20;;;;;;5052673;28;20053;-73
2022/08/09 05:44:56;;;;;;;;;;;34.20;97.30;;;;;;5053584;28;20373;-73
2022/08/09 05:47:24;;;;;;;8.40;2.50;;;34.80;95.80;;;;;;5052522;28;19911;-73
2022/08/09 05:49:51;;;;;;;3.85;2.40;;;35.20;94.90;;;;;;5052248;28;20100;-73
2022/08/09 05:52:17;;;;;;;10.98;2.53;;;35.30;94.50;;;;;;5052766;28;20467;-73
2022/08/09 05:54:43;;;;;;;6.55;2.47;;;35.60;93.40;;;;;;5052571;28;20037;-73
2022/08/09 05:57:09;;;;;;;;;;;35.10;93.70;;;;;;5052295;28;20112;-72
2022/08/09 05:59:35;;;;;;;6.07;2.60;;;34.40;94.40;;;;;;5051997;28;19982;-73
2022/08/09 06:02:03;;;;;;;;;;;34.30;94.50;;;;;;5052593;28;20029;-73
2022/08/09 06:04:29;;;;;;;6.85;2.92;;;34.40;94.50;;;;;;5051659;28;20051;-73
2022/08/09 06:06:55;;;;;;;9.93;2.90;;;35.10;93.70;;;;;;5052093;28;20098;-73
2022/08/09 06:09:21;;;;;;;6.72;2.70;;;35.40;93.00;;;;;;5052357;28;20033;-72
2022/08/09 06:11:47;;;;;;;5.43;2.28;;;36.40;91.80;;;;;;5052104;28;20171;-73
2022/08/09 06:14:13;;;;;;;10.45;2.47;;;37.40;90.70;;;;;;5052178;28;20104;-73
2022/08/09 06:16:40;;;;;;;9.50;2.63;;;38.20;89.00;;;;;;5051761;28;20070;-72
2022/08/09 06:19:06;;;;;;;12.90;2.97;;;38.80;87.70;;;;;;5050749;28;20469;-73
2022/08/09 06:21:32;;;;;;;17.60;3.15;;;39.50;84.40;;;;;;5054817;28;20079;-73
2022/08/09 06:23:58;;;;;;;10.45;2.90;;;39.90;82.70;;;;;;5056113;28;20139;-73
2022/08/09 06:26:24;;;;;;;9.63;2.63;;;40.10;81.20;;;;;;5056149;28;20049;-73
2022/08/09 06:28:52;;;;;;;10.32;2.58;;;40.30;79.90;;;;;;5056663;28;20056;-73
2022/08/09 06:31:18;;;;;;;16.67;2.40;;;40.70;79.10;;;;;;5056351;28;20048;-73
2022/08/09 06:33:44;;;;;;;10.57;2.80;;;41.40;77.80;;;;;;5054766;28;20029;-73
2022/08/09 06:36:10;;;;;;;9.63;2.33;;;42.30;75.70;;;;;;5056088;28;20079;-73
2022/08/09 06:38:37;;;;;;;12.73;2.72;;;43.20;73.80;;;;;;5056217;28;20547;-73
2022/08/09 06:41:04;;;;;;;8.45;2.60;;;44.20;71.60;;;;;;5056369;28;20533;-74
2022/08/09 06:43:30;;;;;;;10.13;2.00;;;45.30;69.40;;;;;;5055808;28;20064;-73
2022/08/09 06:45:57;;;;;;;7.32;2.20;;;46.10;68.50;;;;;;5054523;28;20025;-73
2022/08/09 06:48:23;;;;;;;8.10;2.10;;;46.60;67.30;;;;;;5056041;28;20098;-73
2022/08/09 06:50:49;;;;;;;8.38;2.40;;;46.80;65.80;;;;;;5056194;28;20484;-73
2022/08/09 06:53:15;;;;;;;6.47;2.10;;;47.30;64.30;;;;;;5055917;28;20028;-71
2022/08/09 06:55:41;;;;;;;11.68;2.35;;;47.00;63.60;;;;;;5056085;28;20025;-73
2022/08/09 06:58:07;;;;;;;9.27;2.20;;;47.40;63.30;;;;;;5055906;28;20096;-72
2022/08/09 07:00:34;;;;;;;35.05;3.70;;;47.70;62.10;;;;;;5056000;28;20108;-72
2022/08/09 07:03:01;;;;;;;6.72;2.08;;;48.10;61.60;;;;;;5055801;28;20064;-72
2022/08/09 07:05:27;;;;;;;6.45;2.20;;;48.00;60.70;;;;;;5055646;28;20033;-72
2022/08/09 07:07:54;;;;;;;4.95;1.80;;;47.60;61.20;;;;;;5055528;28;20076;-72
2022/08/09 07:10:21;;;;;;;8.68;1.90;;;47.10;61.20;;;;;;5055896;28;20358;-72
2022/08/09 07:12:48;;;;;;;4.45;1.80;;;47.50;60.80;;;;;;5055436;28;20032;-72
2022/08/09 07:15:14;;;;;;;6.82;2.10;;;47.70;60.20;;;;;;5055287;28;20045;-72
2022/08/09 07:17:40;;;;;;;13.70;2.03;;;46.70;60.60;;;;;;5053927;28;20032;-72
2022/08/09 07:20:06;;;;;;;5.07;2.10;;;46.80;61.00;;;;;;5055717;28;20025;-72
2022/08/09 07:22:32;;;;;;;8.93;2.22;;;47.00;60.70;;;;;;5055138;28;20120;-72
2022/08/09 07:24:58;;;;;;;10.95;2.28;;;46.90;60.50;;;;;;5055206;28;20136;-72
2022/08/09 07:27:26;;;;;;;7.78;2.10;;;46.80;60.90;;;;;;5054516;28;20121;-72
2022/08/09 07:29:53;;;;;;;7.18;2.20;;;46.10;61.40;;;;;;5053805;28;20504;-72
2022/08/09 07:32:19;;;;;;;6.80;2.20;;;45.40;62.60;;;;;;5053131;28;20404;-72
2022/08/09 07:34:45;;;;;;;8.75;2.20;;;44.50;63.30;;;;;;5054033;28;20106;-72
2022/08/09 07:37:12;;;;;;;6.88;2.40;;;43.80;65.00;;;;;;5053806;28;20032;-71
2022/08/09 07:39:38;;;;;;;5.47;2.10;;;42.60;66.10;;;;;;5053881;28;20028;-72
2022/08/09 07:42:05;;;;;;;16.48;2.88;;;41.60;66.50;;;;;;5053954;28;20025;-73
2022/08/09 07:44:31;;;;;;;7.93;2.50;;;40.80;68.90;;;;;;5053627;28;20128;-72
2022/08/09 07:46:57;;;;;;;10.40;4.10;;;40.00;69.70;;;;;;5053438;28;20028;-73
2022/08/09 07:49:23;;;;;;;8.20;2.60;;;39.50;70.70;;;;;;5053423;28;20025;-72
2022/08/09 07:51:49;;;;;;;5.82;2.75;;;39.00;71.70;;;;;;5052844;28;20035;-71
2022/08/09 07:54:15;;;;;;;7.82;2.67;;;38.70;72.50;;;;;;5052155;28;20025;-71
2022/08/09 07:56:42;;;;;;;7.90;3.00;;;38.00;73.00;;;;;;5052857;28;20025;-72
2022/08/09 07:59:08;;;;;;;7.05;2.83;;;37.70;74.40;;;;;;5052320;28;20021;-71
2022/08/09 08:01:34;;;;;;;10.48;3.40;;;37.20;75.60;;;;;;5052153;28;20177;-73
2022/08/09 08:04:03;;;;;;;8.80;3.17;;;37.10;75.90;;;;;;5052170;28;20029;-72
2022/08/09 08:06:30;;;;;;;18.10;3.95;;;36.80;76.20;;;;;;5051958;28;20036;-72
2022/08/09 08:08:57;;;;;;;10.40;2.85;;;36.90;76.60;;;;;;5051968;28;20056;-72
2022/08/09 08:11:23;;;;;;;6.43;3.20;;;36.90;76.80;;;;;;5051904;28;20051;-73
2022/08/09 08:13:49;;;;;;;8.90;3.30;;;36.80;76.90;;;;;;5051915;28;20024;-73
2022/08/09 08:16:15;;;;;;;10.45;3.72;;;37.00;76.70;;;;;;5052515;28;20154;-72
2022/08/09 08:18:41;;;;;;;9.73;2.95;;;37.30;76.40;;;;;;5053202;28;20021;-72
2022/08/09 08:21:07;;;;;;;13.35;2.97;;;37.30;76.70;;;;;;5053452;28;20021;-73
2022/08/09 08:23:33;;;;;;;8.38;2.80;;;37.00;76.80;;;;;;5053757;28;20040;-72
2022/08/09 08:26:01;;;;;;;5.97;2.88;;;37.10;77.30;;;;;;5001134;28;1501726;-73
2022/08/09 08:28:27;;;;;;;6.25;3.03;;;36.90;77.90;;;;;;5054576;28;20028;-72
2022/08/09 08:30:53;;;;;;;7.60;2.78;;;36.70;77.70;;;;;;5054452;28;20040;-72
2022/08/09 08:33:21;;;;;;;9.55;2.88;;;36.30;79.50;;;;;;5053362;28;20366;-72
2022/08/09 08:35:47;;;;;;;19.48;3.55;;;36.20;80.40;;;;;;5053819;28;20021;-74
2022/08/09 08:38:13;;;;;;;7.88;3.08;;;36.40;81.00;;;;;;5054159;28;20028;-73
2022/08/09 08:40:39;;;;;;;7.20;2.50;;;36.40;80.40;;;;;;5053469;28;20025;-73
2022/08/09 08:43:05;;;;;;;5.45;2.70;;;36.60;80.80;;;;;;5053391;28;20047;-73
2022/08/09 08:45:34;;;;;;;9.40;3.00;;;36.80;80.50;;;;;;5053220;28;20434;-73
2022/08/09 08:48:01;;;;;;;7.78;3.03;;;37.00;80.70;;;;;;5053437;28;20021;-73
2022/08/09 08:50:27;;;;;;;6.47;2.80;;;36.60;80.90;;;;;;5051822;28;20470;-73
2022/08/09 08:52:54;;;;;;;6.68;2.83;;;36.40;81.70;;;;;;5053394;28;20029;-72
2022/08/09 08:55:20;;;;;;;5.22;2.88;;;36.60;81.30;;;;;;5053462;28;20036;-72
2022/08/09 08:57:48;;;;;;;7.22;2.72;;;36.90;82.00;;;;;;5053426;28;20021;-72
2022/08/09 09:00:14;;;;;;;6.18;2.92;;;36.90;82.60;;;;;;5053297;28;20036;-73
2022/08/09 09:02:43;;;;;;;5.80;2.85;;;36.90;82.60;;;;;;5052562;28;20046;-73
2022/08/09 09:05:12;;;;;;;5.05;2.95;;;36.80;82.50;;;;;;5052867;28;20033;-72
2022/08/09 09:07:42;;;;;;;10.43;3.10;;;36.40;82.80;;;;;;5051136;28;20065;-72
2022/08/09 09:10:09;;;;;;;5.50;3.05;;;35.80;83.60;;;;;;5051491;28;20474;-73
2022/08/09 09:12:36;;;;;;;6.15;3.05;;;35.80;83.80;;;;;;5053119;28;20076;-72
2022/08/09 09:15:04;;;;;;;44.33;5.40;;;35.50;83.30;;;;;;5052568;28;20021;-71
2022/08/09 09:17:30;;;;;;;10.30;3.40;;;35.40;83.00;;;;;;5052655;28;20025;-71
2022/08/09 09:19:56;;;;;;;;;;;35.30;82.60;;;;;;5053459;28;20020;-72
2022/08/09 09:22:22;;;;;;;6.93;3.40;;;35.40;82.70;;;;;;5053261;28;20273;-73
2022/08/09 09:24:55;;;;;;;10.60;4.15;;;35.30;81.50;;;;;;5052342;28;20064;-73
2022/08/09 09:27:26;;;;;;;10.32;3.70;;;35.50;81.50;;;;;;5052801;28;20029;-73
2022/08/09 09:29:55;;;;;;;7.25;3.80;;;35.70;81.00;;;;;;5052687;28;20461;-73
2022/08/09 09:32:26;;;;;;;7.22;3.67;;;35.90;80.50;;;;;;5052867;28;20056;-73
2022/08/09 09:35:07;;;;;;;7.15;3.63;;;35.80;79.50;;;;;;5052630;28;20021;-72
2022/08/09 09:37:33;;;;;;;7.55;3.80;;;35.90;79.90;;;;;;5051316;28;20029;-73
2022/08/09 09:40:00;;;;;;;10.43;3.47;;;35.80;79.70;;;;;;5052824;28;20025;-73
2022/08/09 09:42:28;;;;;;;8.95;4.00;;;35.60;78.90;;;;;;5051092;28;20040;-72
2022/08/09 09:44:57;;;;;;;8.38;3.92;;;35.20;80.50;;;;;;5052603;28;20029;-73
2022/08/09 09:47:24;;;;;;;7.10;4.30;;;35.30;79.80;;;;;;5052122;28;20021;-72
2022/08/09 09:49:52;;;;;;;6.07;3.58;;;35.40;79.40;;;;;;5052380;28;20499;-72
2022/08/09 09:52:18;;;;;;;7.82;3.50;;;35.60;79.50;;;;;;5052239;28;20373;-73
2022/08/09 09:54:47;;;;;;;8.45;3.72;;;35.80;79.50;;;;;;5052114;28;20021;-72
2022/08/09 09:57:22;;;;;;;9.38;3.28;;;35.80;79.50;;;;;;5052387;28;20025;-72
2022/08/09 09:59:53;;;;;;;7.90;3.88;;;35.80;79.50;;;;;;5052676;28;20037;-72
2022/08/09 10:02:21;;;;;;;14.15;4.40;;;35.50;80.00;;;;;;5052530;28;20029;-71
2022/08/09 10:05:23;;;;;;;11.70;3.85;;;34.90;82.80;;;;;;5052553;28;20048;-73
2022/08/09 10:08:03;;;;;;;7.72;4.13;;;34.30;83.60;;;;;;5030131;28;20026;-73
2022/08/09 10:10:29;;;;;;;7.40;3.70;;;33.80;84.90;;;;;;5029980;28;20038;-73
2022/08/09 10:12:55;;;;;;;6.40;3.80;;;34.00;85.50;;;;;;5029982;28;20044;-73
2022/08/09 10:15:21;;;;;;;;;;;34.30;85.60;;;;;;5030475;28;20445;-72
2022/08/09 10:17:51;;;;;;;7.20;3.67;;;34.50;85.60;;;;;;5030173;28;19905;-72
2022/08/09 10:20:20;;;;;;;8.38;4.22;;;34.70;85.80;;;;;;5030273;28;20030;-72
2022/08/09 10:22:58;;;;;;;9.57;4.18;;;34.70;86.30;;;;;;5031071;28;20128;-72
2022/08/09 10:25:25;;;;;;;13.40;3.80;;;34.60;86.90;;;;;;5030696;28;20413;-72
2022/08/09 10:27:51;;;;;;;7.35;3.67;;;34.20;87.70;;;;;;5030989;28;20029;-73
2022/08/09 10:30:16;;;;;;;;;;;34.30;87.70;;;;;;5030743;28;20052;-73
2022/08/09 10:32:44;;;;;;;4.57;3.40;;;34.50;87.30;;;;;;5030326;28;19936;-73
2022/08/09 10:35:10;;;;;;;28.80;4.32;;;34.60;88.00;;;;;;5030425;28;20040;-72
2022/08/09 10:37:36;;;;;;;9.40;3.47;;;34.40;86.80;;;;;;5030203;28;20044;-73
2022/08/09 10:40:05;;;;;;;7.45;3.97;;;34.00;87.10;;;;;;5030362;28;20075;-72
2022/08/09 10:42:31;;;;;;;8.85;4.30;;;33.70;88.50;;;;;;5043583;28;20044;-72
2022/08/09 10:44:57;;;;;;;;;;;33.80;88.50;;;;;;5052616;28;20037;-72
2022/08/09 10:47:35;;;;;;;6.40;3.60;;;33.80;90.10;;;;;;5050487;28;19912;-72
2022/08/09 10:50:21;;;;;;;8.75;4.25;;;34.00;90.50;;;;;;5052457;28;20029;-72
2022/08/09 10:53:18;;;;;;;6.72;4.05;;;34.10;90.60;;;;;;5052196;28;20027;-72
2022/08/09 10:55:44;;;;;;;8.98;3.70;;;34.30;90.30;;;;;;5050548;28;20025;-72
2022/08/09 10:58:27;;;;;;;;;;;34.30;90.90;;;;;;5051793;28;20057;-72
2022/08/09 11:00:53;;;;;;;10.80;4.63;;;34.30;90.50;;;;;;5051694;28;19911;-72
2022/08/09 11:03:21;;;;;;;;;;;34.00;91.10;;;;;;5052224;28;20029;-72
2022/08/09 11:06:21;;;;;;;8.27;4.18;;;33.90;91.90;;;;;;5051340;28;19911;-72
2022/08/09 11:08:49;;;;;;;7.40;4.00;;;34.10;92.20;;;;;;5053925;28;20043;-72
2022/08/09 11:11:18;;;;;;;5.65;4.05;;;34.20;92.00;;;;;;5055302;28;20037;-72
2022/08/09 11:13:45;;;;;;;5.22;3.97;;;34.50;92.00;;;;;;5055161;28;20037;-72
2022/08/09 11:16:35;;;;;;;10.07;3.78;;;34.40;92.00;;;;;;5055360;28;20051;-72
2022/08/09 11:19:01;;;;;;;10.85;4.13;;;34.50;91.40;;;;;;5056133;28;20029;-71
2022/08/09 11:21:49;;;;;;;4.40;3.50;;;34.50;91.10;;;;;;5056085;28;20017;-72
2022/08/09 11:24:16;;;;;;;7.82;3.88;;;34.50;91.40;;;;;;5055667;28;20025;-72
2022/08/09 11:26:43;;;;;;;10.63;3.90;;;34.40;92.00;;;;;;5055422;28;20053;-72
2022/08/09 11:29:47;;;;;;;7.05;4.10;;;34.30;92.50;;;;;;5056067;28;20025;-72
2022/08/09 11:32:42;;;;;;;6.05;3.75;;;34.30;92.60;;;;;;5055381;28;20021;-72
2022/08/09 11:35:16;;;;;;;6.45;3.90;;;34.20;92.20;;;;;;5055653;28;20078;-72
2022/08/09 11:37:46;;;;;;;17.13;4.00;;;34.10;92.70;;;;;;5055560;28;20032;-74
2022/08/09 11:40:27;;;;;;;6.97;4.00;;;34.40;92.10;;;;;;5055708;28;20025;-72
2022/08/09 11:42:55;;;;;;;5.13;3.85;;;34.20;92.40;;;;;;5055525;28;20017;-72
2022/08/09 11:45:24;;;;;;;5.47;3.60;;;34.30;92.90;;;;;;5055312;28;20040;-72
2022/08/09 11:47:53;;;;;;;7.45;3.83;;;34.60;92.20;;;;;;5055248;28;20025;-74
2022/08/09 11:50:20;;;;;;;6.93;3.80;;;34.70;93.00;;;;;;5054791;28;20090;-72
2022/08/09 11:52:58;;;;;;;7.72;4.68;;;34.60;92.80;;;;;;5054763;28;20021;-73
2022/08/09 11:55:37;;;;;;;6.03;3.83;;;34.70;93.40;;;;;;5054647;28;20035;-72
2022/08/09 11:58:15;;;;;;;5.90;3.50;;;34.60;92.40;;;;;;5054667;28;20416;-72
2022/08/09 12:00:53;;;;;;;16.55;3.85;;;34.70;92.40;;;;;;5054406;28;20029;-72
2022/08/09 12:03:23;;;;;;;8.07;3.60;;;34.80;91.60;;;;;;5054896;28;20095;-73
2022/08/09 12:05:52;;;;;;;4.60;2.92;;;35.00;90.60;;;;;;5054924;28;20025;-73
2022/08/09 12:08:20;;;;;;;5.57;3.50;;;35.00;89.30;;;;;;5053302;28;20377;-72
2022/08/09 12:10:51;;;;;;;6.70;3.53;;;34.90;89.30;;;;;;5054861;28;20017;-73
2022/08/09 12:13:40;;;;;;;9.55;4.03;;;34.70;91.00;;;;;;5054842;28;20052;-73
2022/08/09 12:16:11;;;;;;;5.20;3.80;;;34.00;93.10;;;;;;5052971;28;20029;-72
2022/08/09 12:18:39;;;;;;;6.57;4.53;;;33.70;93.30;;;;;;5052187;28;20065;-72
2022/08/09 12:21:07;;;;;;;11.63;4.72;;;33.70;93.50;;;;;;5055000;28;20025;-72
2022/08/09 12:23:40;;;;;;;7.18;4.60;;;33.70;94.10;;;;;;5054449;28;20025;-72
2022/08/09 12:26:06;;;;;;;6.95;4.20;;;33.70;93.90;;;;;;5054414;28;20053;-72
2022/08/09 12:28:33;;;;;;;;;;;33.80;93.70;;;;;;5053509;28;20123;-73
2022/08/09 12:31:00;;;;;;;8.45;4.40;;;33.70;93.80;;;;;;5054774;28;19995;-73
2022/08/09 12:33:27;;;;;;;9.30;4.30;;;33.50;94.70;;;;;;5054337;28;20103;-72
2022/08/09 12:36:03;;;;;;;5.78;4.30;;;33.70;95.00;;;;;;5054222;28;20113;-72
2022/08/09 12:38:30;;;;;;;8.65;4.40;;;33.80;95.60;;;;;;5054661;28;20021;-72
2022/08/09 12:40:58;;;;;;;7.03;4.50;;;33.80;96.20;;;;;;5052501;28;20161;-74
2022/08/09 12:43:26;;;;;;;7.35;4.30;;;33.90;95.60;;;;;;5054235;28;20432;-72
2022/08/09 12:45:54;;;;;;;7.38;4.32;;;33.80;95.30;;;;;;5054023;28;20536;-72
2022/08/09 12:48:21;;;;;;;5.63;3.60;;;33.80;94.90;;;;;;5053991;28;20060;-73
2022/08/09 12:50:49;;;;;;;7.45;3.80;;;33.70;94.50;;;;;;5053982;28;20033;-72
2022/08/09 12:53:37;;;;;;;6.68;3.78;;;33.60;94.90;;;;;;5053548;28;20078;-72
2022/08/09 12:56:15;;;;;;;11.88;3.88;;;33.70;94.90;;;;;;5053512;28;20500;-72
2022/08/09 12:59:02;;;;;;;6.47;3.60;;;33.50;94.70;;;;;;5052066;28;20446;-72
2022/08/09 13:01:28;;;;;;;5.55;3.67;;;33.60;93.60;;;;;;5053658;28;20029;-73